sensor_id;sensor_type;location;lat;lon;timestamp;temperature;humidity
32753;DHT22;19121;52.428;10.816;2023-02-02T00:00:12;18.50;43.80
32753;DHT22;19121;52.428;10.816;2023-02-02T00:02:38;18.50;43.80
32753;DHT22;19121;52.428;10.816;2023-02-02T00:05:03;18.50;43.80
32753;DHT22;19121;52.428;10.816;2023-02-02T00:07:29;18.50;43.80
32753;DHT22;19121;52.428;10.816;2023-02-02T00:09:54;18.50;43.80
32753;DHT22;19121;52.428;10.816;2023-02-02T00:12:19;18.50;43.80
32753;DHT22;19121;52.428;10.816;2023-02-02T00:14:45;18.50;43.80
32753;DHT22;19121;52.428;10.816;2023-02-02T00:17:10;18.50;43.80
32753;DHT22;19121;52.428;10.816;2023-02-02T00:19:36;18.40;43.80
32753;DHT22;19121;52.428;10.816;2023-02-02T00:22:01;18.40;43.80
32753;DHT22;19121;52.428;10.816;2023-02-02T00:24:26;18.40;43.80
32753;DHT22;19121;52.428;10.816;2023-02-02T00:26:56;18.40;43.70
32753;DHT22;19121;52.428;10.816;2023-02-02T00:29:23;18.40;43.80
32753;DHT22;19121;52.428;10.816;2023-02-02T00:31:49;18.40;43.80
32753;DHT22;19121;52.428;10.816;2023-02-02T00:34:15;18.40;43.70
32753;DHT22;19121;52.428;10.816;2023-02-02T00:36:41;18.40;43.80
32753;DHT22;19121;52.428;10.816;2023-02-02T00:39:07;18.40;43.80
32753;DHT22;19121;52.428;10.816;2023-02-02T00:41:32;18.40;43.80
32753;DHT22;19121;52.428;10.816;2023-02-02T00:43:58;18.40;43.70
32753;DHT22;19121;52.428;10.816;2023-02-02T00:46:42;18.40;43.70
32753;DHT22;19121;52.428;10.816;2023-02-02T00:49:08;18.40;43.80
32753;DHT22;19121;52.428;10.816;2023-02-02T00:51:34;18.40;43.80
32753;DHT22;19121;52.428;10.816;2023-02-02T00:53:59;18.40;43.70
32753;DHT22;19121;52.428;10.816;2023-02-02T00:56:25;18.40;43.70
32753;DHT22;19121;52.428;10.816;2023-02-02T00:58:50;18.40;43.70
32753;DHT22;19121;52.428;10.816;2023-02-02T01:01:16;18.40;43.70
32753;DHT22;19121;52.428;10.816;2023-02-02T01:03:42;18.40;43.70
32753;DHT22;19121;52.428;10.816;2023-02-02T01:06:08;18.40;43.70
32753;DHT22;19121;52.428;10.816;2023-02-02T01:08:33;18.40;43.70
32753;DHT22;19121;52.428;10.816;2023-02-02T01:10:59;18.30;43.60
32753;DHT22;19121;52.428;10.816;2023-02-02T01:13:24;18.40;43.70
32753;DHT22;19121;52.428;10.816;2023-02-02T01:15:54;18.30;43.60
32753;DHT22;19121;52.428;10.816;2023-02-02T01:18:19;18.30;43.70
32753;DHT22;19121;52.428;10.816;2023-02-02T01:20:45;18.30;43.70
32753;DHT22;19121;52.428;10.816;2023-02-02T01:23:10;18.30;43.60
32753;DHT22;19121;52.428;10.816;2023-02-02T01:25:35;18.30;43.70
32753;DHT22;19121;52.428;10.816;2023-02-02T01:28:02;18.30;43.70
32753;DHT22;19121;52.428;10.816;2023-02-02T01:30:28;18.30;43.60
32753;DHT22;19121;52.428;10.816;2023-02-02T01:32:53;18.30;43.60
32753;DHT22;19121;52.428;10.816;2023-02-02T01:35:19;18.30;43.60
32753;DHT22;19121;52.428;10.816;2023-02-02T01:37:44;18.30;43.70
32753;DHT22;19121;52.428;10.816;2023-02-02T01:40:10;18.30;43.60
32753;DHT22;19121;52.428;10.816;2023-02-02T01:42:35;18.30;43.70
32753;DHT22;19121;52.428;10.816;2023-02-02T01:45:16;18.30;43.60
32753;DHT22;19121;52.428;10.816;2023-02-02T01:47:43;18.30;43.60
32753;DHT22;19121;52.428;10.816;2023-02-02T01:50:10;18.30;43.60
32753;DHT22;19121;52.428;10.816;2023-02-02T01:52:35;18.30;43.60
32753;DHT22;19121;52.428;10.816;2023-02-02T01:55:03;18.30;43.60
32753;DHT22;19121;52.428;10.816;2023-02-02T01:57:55;18.30;43.60
32753;DHT22;19121;52.428;10.816;2023-02-02T02:00:22;18.30;43.60
32753;DHT22;19121;52.428;10.816;2023-02-02T02:02:50;18.30;43.70
32753;DHT22;19121;52.428;10.816;2023-02-02T02:05:17;18.30;43.60
32753;DHT22;19121;52.428;10.816;2023-02-02T02:07:44;18.30;43.60
32753;DHT22;19121;52.428;10.816;2023-02-02T02:10:11;18.30;43.60
32753;DHT22;19121;52.428;10.816;2023-02-02T02:12:36;18.30;43.60
32753;DHT22;19121;52.428;10.816;2023-02-02T02:15:02;18.30;43.60
32753;DHT22;19121;52.428;10.816;2023-02-02T02:20:23;18.30;43.60
32753;DHT22;19121;52.428;10.816;2023-02-02T02:29:00;18.20;43.50
32753;DHT22;19121;52.428;10.816;2023-02-02T02:34:09;18.20;43.50
32753;DHT22;19121;52.428;10.816;2023-02-02T02:36:48;18.20;43.50
32753;DHT22;19121;52.428;10.816;2023-02-02T02:39:25;18.20;43.60
32753;DHT22;19121;52.428;10.816;2023-02-02T02:41:53;18.20;43.50
32753;DHT22;19121;52.428;10.816;2023-02-02T02:44:20;18.20;43.50
32753;DHT22;19121;52.428;10.816;2023-02-02T02:46:46;18.20;43.50
32753;DHT22;19121;52.428;10.816;2023-02-02T02:49:12;18.20;43.50
32753;DHT22;19121;52.428;10.816;2023-02-02T02:54:07;18.20;43.50
32753;DHT22;19121;52.428;10.816;2023-02-02T02:59:17;18.20;43.50
32753;DHT22;19121;52.428;10.816;2023-02-02T03:02:12;18.20;43.60
32753;DHT22;19121;52.428;10.816;2023-02-02T03:04:57;18.20;43.50
32753;DHT22;19121;52.428;10.816;2023-02-02T03:07:26;18.20;43.50
32753;DHT22;19121;52.428;10.816;2023-02-02T03:09:54;18.20;43.50
32753;DHT22;19121;52.428;10.816;2023-02-02T03:12:20;18.20;43.50
32753;DHT22;19121;52.428;10.816;2023-02-02T03:14:45;18.20;43.50
32753;DHT22;19121;52.428;10.816;2023-02-02T03:17:11;18.20;43.50
32753;DHT22;19121;52.428;10.816;2023-02-02T03:19:36;18.20;43.50
32753;DHT22;19121;52.428;10.816;2023-02-02T03:22:02;18.20;43.50
32753;DHT22;19121;52.428;10.816;2023-02-02T03:24:27;18.20;43.40
32753;DHT22;19121;52.428;10.816;2023-02-02T03:26:53;18.20;43.50
32753;DHT22;19121;52.428;10.816;2023-02-02T03:29:18;18.20;43.50
32753;DHT22;19121;52.428;10.816;2023-02-02T03:31:44;18.20;44.10
32753;DHT22;19121;52.428;10.816;2023-02-02T03:34:10;18.20;43.40
32753;DHT22;19121;52.428;10.816;2023-02-02T03:36:35;18.20;44.10
32753;DHT22;19121;52.428;10.816;2023-02-02T03:39:01;18.20;43.40
32753;DHT22;19121;52.428;10.816;2023-02-02T03:41:26;18.20;43.40
32753;DHT22;19121;52.428;10.816;2023-02-02T03:43:52;18.20;43.40
32753;DHT22;19121;52.428;10.816;2023-02-02T03:46:17;18.20;43.40
32753;DHT22;19121;52.428;10.816;2023-02-02T03:48:42;18.20;43.40
32753;DHT22;19121;52.428;10.816;2023-02-02T03:51:09;18.20;43.40
32753;DHT22;19121;52.428;10.816;2023-02-02T03:53:36;18.20;43.40
32753;DHT22;19121;52.428;10.816;2023-02-02T03:56:01;18.20;43.40
32753;DHT22;19121;52.428;10.816;2023-02-02T03:58:27;18.20;43.40
32753;DHT22;19121;52.428;10.816;2023-02-02T04:00:53;18.30;43.50
32753;DHT22;19121;52.428;10.816;2023-02-02T04:03:20;18.20;43.40
32753;DHT22;19121;52.428;10.816;2023-02-02T04:05:49;18.20;43.40
32753;DHT22;19121;52.428;10.816;2023-02-02T04:08:14;18.20;43.40
32753;DHT22;19121;52.428;10.816;2023-02-02T04:10:40;18.20;43.30
32753;DHT22;19121;52.428;10.816;2023-02-02T04:13:06;18.20;43.40
32753;DHT22;19121;52.428;10.816;2023-02-02T04:15:32;18.20;43.30
32753;DHT22;19121;52.428;10.816;2023-02-02T04:17:57;18.20;43.30
32753;DHT22;19121;52.428;10.816;2023-02-02T04:20:23;18.20;43.30
32753;DHT22;19121;52.428;10.816;2023-02-02T04:22:48;18.20;43.30
32753;DHT22;19121;52.428;10.816;2023-02-02T04:25:13;18.20;43.30
32753;DHT22;19121;52.428;10.816;2023-02-02T04:27:39;18.20;43.30
32753;DHT22;19121;52.428;10.816;2023-02-02T04:30:04;18.30;43.40
32753;DHT22;19121;52.428;10.816;2023-02-02T04:32:30;18.20;43.30
32753;DHT22;19121;52.428;10.816;2023-02-02T04:34:55;18.30;43.40
32753;DHT22;19121;52.428;10.816;2023-02-02T04:37:21;18.20;43.40
32753;DHT22;19121;52.428;10.816;2023-02-02T04:39:47;18.20;43.30
32753;DHT22;19121;52.428;10.816;2023-02-02T04:42:12;18.20;43.30
32753;DHT22;19121;52.428;10.816;2023-02-02T04:44:37;18.30;43.40
32753;DHT22;19121;52.428;10.816;2023-02-02T04:47:04;18.20;43.30
32753;DHT22;19121;52.428;10.816;2023-02-02T04:49:29;18.30;43.40
32753;DHT22;19121;52.428;10.816;2023-02-02T04:51:54;18.30;43.30
32753;DHT22;19121;52.428;10.816;2023-02-02T04:54:20;18.30;43.30
32753;DHT22;19121;52.428;10.816;2023-02-02T04:56:45;18.30;43.30
32753;DHT22;19121;52.428;10.816;2023-02-02T04:59:11;18.20;43.30
32753;DHT22;19121;52.428;10.816;2023-02-02T05:01:36;18.30;43.40
32753;DHT22;19121;52.428;10.816;2023-02-02T05:04:02;18.30;43.30
32753;DHT22;19121;52.428;10.816;2023-02-02T05:06:27;18.30;43.30
32753;DHT22;19121;52.428;10.816;2023-02-02T05:08:53;18.30;43.30
32753;DHT22;19121;52.428;10.816;2023-02-02T05:11:20;18.20;43.20
32753;DHT22;19121;52.428;10.816;2023-02-02T05:13:46;18.30;43.30
32753;DHT22;19121;52.428;10.816;2023-02-02T05:16:12;18.30;43.30
32753;DHT22;19121;52.428;10.816;2023-02-02T05:18:37;18.30;43.30
32753;DHT22;19121;52.428;10.816;2023-02-02T05:21:03;18.30;43.30
32753;DHT22;19121;52.428;10.816;2023-02-02T05:23:30;18.30;43.30
32753;DHT22;19121;52.428;10.816;2023-02-02T05:25:55;18.30;43.90
32753;DHT22;19121;52.428;10.816;2023-02-02T05:28:21;18.30;43.20
32753;DHT22;19121;52.428;10.816;2023-02-02T05:30:47;18.30;43.20
32753;DHT22;19121;52.428;10.816;2023-02-02T05:33:13;18.30;43.20
32753;DHT22;19121;52.428;10.816;2023-02-02T05:35:38;18.30;43.20
32753;DHT22;19121;52.428;10.816;2023-02-02T05:38:04;18.30;43.20
32753;DHT22;19121;52.428;10.816;2023-02-02T05:40:29;18.30;43.20
32753;DHT22;19121;52.428;10.816;2023-02-02T05:42:55;18.30;43.20
32753;DHT22;19121;52.428;10.816;2023-02-02T05:45:20;18.30;43.20
32753;DHT22;19121;52.428;10.816;2023-02-02T05:47:46;18.30;43.20
32753;DHT22;19121;52.428;10.816;2023-02-02T05:50:11;18.30;43.20
32753;DHT22;19121;52.428;10.816;2023-02-02T05:52:37;18.30;43.20
32753;DHT22;19121;52.428;10.816;2023-02-02T05:55:04;18.30;43.20
32753;DHT22;19121;52.428;10.816;2023-02-02T05:57:30;18.30;43.20
32753;DHT22;19121;52.428;10.816;2023-02-02T05:59:55;18.30;43.20
32753;DHT22;19121;52.428;10.816;2023-02-02T06:02:20;18.30;43.20
32753;DHT22;19121;52.428;10.816;2023-02-02T06:04:46;18.30;43.20
32753;DHT22;19121;52.428;10.816;2023-02-02T06:07:11;18.30;43.20
32753;DHT22;19121;52.428;10.816;2023-02-02T06:09:37;18.30;43.20
32753;DHT22;19121;52.428;10.816;2023-02-02T06:12:02;18.30;43.10
32753;DHT22;19121;52.428;10.816;2023-02-02T06:14:28;18.30;43.10
32753;DHT22;19121;52.428;10.816;2023-02-02T06:16:54;18.30;43.10
32753;DHT22;19121;52.428;10.816;2023-02-02T06:19:19;18.30;43.20
32753;DHT22;19121;52.428;10.816;2023-02-02T06:21:45;18.30;43.10
32753;DHT22;19121;52.428;10.816;2023-02-02T06:24:10;18.40;43.20
32753;DHT22;19121;52.428;10.816;2023-02-02T06:26:35;18.30;43.10
32753;DHT22;19121;52.428;10.816;2023-02-02T06:29:01;18.30;43.10
32753;DHT22;19121;52.428;10.816;2023-02-02T06:31:27;18.30;43.10
32753;DHT22;19121;52.428;10.816;2023-02-02T06:33:53;18.30;43.10
32753;DHT22;19121;52.428;10.816;2023-02-02T06:36:19;18.30;43.10
32753;DHT22;19121;52.428;10.816;2023-02-02T06:38:51;18.30;43.10
32753;DHT22;19121;52.428;10.816;2023-02-02T06:41:17;18.30;43.70
32753;DHT22;19121;52.428;10.816;2023-02-02T06:43:43;18.30;43.10
32753;DHT22;19121;52.428;10.816;2023-02-02T06:46:08;18.30;43.10
32753;DHT22;19121;52.428;10.816;2023-02-02T06:48:33;18.30;43.10
32753;DHT22;19121;52.428;10.816;2023-02-02T06:50:59;18.30;43.10
32753;DHT22;19121;52.428;10.816;2023-02-02T06:53:25;18.30;43.40
32753;DHT22;19121;52.428;10.816;2023-02-02T06:55:54;18.40;43.60
32753;DHT22;19121;52.428;10.816;2023-02-02T06:58:20;18.40;43.70
32753;DHT22;19121;52.428;10.816;2023-02-02T07:00:45;18.40;43.70
32753;DHT22;19121;52.428;10.816;2023-02-02T07:03:11;18.40;43.70
32753;DHT22;19121;52.428;10.816;2023-02-02T07:05:36;18.40;43.80
32753;DHT22;19121;52.428;10.816;2023-02-02T07:08:02;18.50;43.80
32753;DHT22;19121;52.428;10.816;2023-02-02T07:10:28;18.50;43.70
32753;DHT22;19121;52.428;10.816;2023-02-02T07:12:53;18.50;44.50
32753;DHT22;19121;52.428;10.816;2023-02-02T07:15:19;18.60;44.20
32753;DHT22;19121;52.428;10.816;2023-02-02T07:17:44;18.60;44.40
32753;DHT22;19121;52.428;10.816;2023-02-02T07:20:09;18.60;44.60
32753;DHT22;19121;52.428;10.816;2023-02-02T07:22:37;18.60;44.50
32753;DHT22;19121;52.428;10.816;2023-02-02T07:25:03;18.70;44.40
32753;DHT22;19121;52.428;10.816;2023-02-02T07:27:28;18.70;45.00
32753;DHT22;19121;52.428;10.816;2023-02-02T07:29:53;18.70;44.40
32753;DHT22;19121;52.428;10.816;2023-02-02T07:32:19;18.80;44.40
32753;DHT22;19121;52.428;10.816;2023-02-02T07:34:44;18.80;44.40
32753;DHT22;19121;52.428;10.816;2023-02-02T07:37:10;18.80;44.60
32753;DHT22;19121;52.428;10.816;2023-02-02T07:39:35;18.80;44.50
32753;DHT22;19121;52.428;10.816;2023-02-02T07:42:01;18.90;44.50
32753;DHT22;19121;52.428;10.816;2023-02-02T07:44:26;18.90;45.20
32753;DHT22;19121;52.428;10.816;2023-02-02T07:46:51;18.90;44.60
32753;DHT22;19121;52.428;10.816;2023-02-02T07:49:17;18.90;44.80
32753;DHT22;19121;52.428;10.816;2023-02-02T07:51:43;18.90;44.80
32753;DHT22;19121;52.428;10.816;2023-02-02T07:54:09;18.90;44.80
32753;DHT22;19121;52.428;10.816;2023-02-02T07:56:36;18.90;44.70
32753;DHT22;19121;52.428;10.816;2023-02-02T07:59:01;18.90;44.70
32753;DHT22;19121;52.428;10.816;2023-02-02T08:01:26;18.90;44.70
32753;DHT22;19121;52.428;10.816;2023-02-02T08:03:53;18.90;44.70
32753;DHT22;19121;52.428;10.816;2023-02-02T08:06:19;18.90;45.30
32753;DHT22;19121;52.428;10.816;2023-02-02T08:08:46;18.90;44.70
32753;DHT22;19121;52.428;10.816;2023-02-02T08:11:12;18.80;44.70
32753;DHT22;19121;52.428;10.816;2023-02-02T08:13:38;18.80;44.70
32753;DHT22;19121;52.428;10.816;2023-02-02T08:16:04;18.80;44.80
32753;DHT22;19121;52.428;10.816;2023-02-02T08:18:30;18.90;44.80
32753;DHT22;19121;52.428;10.816;2023-02-02T08:21:02;18.90;44.80
32753;DHT22;19121;52.428;10.816;2023-02-02T08:23:28;18.90;44.80
32753;DHT22;19121;52.428;10.816;2023-02-02T08:25:53;18.80;44.70
32753;DHT22;19121;52.428;10.816;2023-02-02T08:28:19;18.90;44.80
32753;DHT22;19121;52.428;10.816;2023-02-02T08:30:45;18.90;44.80
32753;DHT22;19121;52.428;10.816;2023-02-02T08:33:11;18.90;44.80
32753;DHT22;19121;52.428;10.816;2023-02-02T08:35:40;18.90;44.90
32753;DHT22;19121;52.428;10.816;2023-02-02T08:38:05;18.90;44.90
32753;DHT22;19121;52.428;10.816;2023-02-02T08:40:31;18.90;44.80
32753;DHT22;19121;52.428;10.816;2023-02-02T08:42:57;18.90;44.80
32753;DHT22;19121;52.428;10.816;2023-02-02T08:45:22;18.90;44.80
32753;DHT22;19121;52.428;10.816;2023-02-02T08:47:48;18.90;44.90
32753;DHT22;19121;52.428;10.816;2023-02-02T08:50:14;18.90;44.90
32753;DHT22;19121;52.428;10.816;2023-02-02T08:52:39;18.90;44.90
32753;DHT22;19121;52.428;10.816;2023-02-02T08:55:05;18.90;44.90
32753;DHT22;19121;52.428;10.816;2023-02-02T08:57:31;19.00;45.00
32753;DHT22;19121;52.428;10.816;2023-02-02T08:59:57;18.90;44.90
32753;DHT22;19121;52.428;10.816;2023-02-02T09:02:22;19.00;44.90
32753;DHT22;19121;52.428;10.816;2023-02-02T09:04:47;19.00;44.90
32753;DHT22;19121;52.428;10.816;2023-02-02T09:07:13;19.00;45.00
32753;DHT22;19121;52.428;10.816;2023-02-02T09:09:38;19.00;45.00
32753;DHT22;19121;52.428;10.816;2023-02-02T09:12:04;19.00;45.00
32753;DHT22;19121;52.428;10.816;2023-02-02T09:14:29;19.00;44.90
32753;DHT22;19121;52.428;10.816;2023-02-02T09:16:55;19.00;45.00
32753;DHT22;19121;52.428;10.816;2023-02-02T09:19:20;19.10;45.00
32753;DHT22;19121;52.428;10.816;2023-02-02T09:21:47;19.10;45.00
32753;DHT22;19121;52.428;10.816;2023-02-02T09:24:13;19.10;45.00
32753;DHT22;19121;52.428;10.816;2023-02-02T09:26:38;19.10;45.00
32753;DHT22;19121;52.428;10.816;2023-02-02T09:29:09;19.00;45.00
32753;DHT22;19121;52.428;10.816;2023-02-02T09:31:35;19.10;45.00
32753;DHT22;19121;52.428;10.816;2023-02-02T09:34:02;19.10;45.10
32753;DHT22;19121;52.428;10.816;2023-02-02T09:36:28;19.10;45.10
32753;DHT22;19121;52.428;10.816;2023-02-02T09:38:53;19.10;45.10
32753;DHT22;19121;52.428;10.816;2023-02-02T09:41:44;19.10;45.10
32753;DHT22;19121;52.428;10.816;2023-02-02T09:49:47;19.10;45.20
32753;DHT22;19121;52.428;10.816;2023-02-02T09:52:18;19.10;45.20
32753;DHT22;19121;52.428;10.816;2023-02-02T09:54:45;19.10;45.30
32753;DHT22;19121;52.428;10.816;2023-02-02T09:57:14;19.20;45.40
32753;DHT22;19121;52.428;10.816;2023-02-02T09:59:42;19.20;45.40
32753;DHT22;19121;52.428;10.816;2023-02-02T10:02:19;19.20;45.40
32753;DHT22;19121;52.428;10.816;2023-02-02T10:04:47;19.20;45.40
32753;DHT22;19121;52.428;10.816;2023-02-02T10:07:15;19.20;45.40
32753;DHT22;19121;52.428;10.816;2023-02-02T10:09:44;19.20;45.30
32753;DHT22;19121;52.428;10.816;2023-02-02T10:12:16;19.20;45.40
32753;DHT22;19121;52.428;10.816;2023-02-02T10:14:50;19.20;45.30
32753;DHT22;19121;52.428;10.816;2023-02-02T10:17:37;19.20;45.40
32753;DHT22;19121;52.428;10.816;2023-02-02T10:20:14;19.20;45.30
32753;DHT22;19121;52.428;10.816;2023-02-02T10:22:41;19.30;45.30
32753;DHT22;19121;52.428;10.816;2023-02-02T10:25:10;19.30;45.40
32753;DHT22;19121;52.428;10.816;2023-02-02T10:27:37;19.30;45.40
32753;DHT22;19121;52.428;10.816;2023-02-02T10:30:06;19.30;45.40
32753;DHT22;19121;52.428;10.816;2023-02-02T10:32:39;19.30;45.30
32753;DHT22;19121;52.428;10.816;2023-02-02T10:46:10;19.40;45.40
32753;DHT22;19121;52.428;10.816;2023-02-02T10:48:37;19.40;45.40
32753;DHT22;19121;52.428;10.816;2023-02-02T10:51:10;19.40;45.40
32753;DHT22;19121;52.428;10.816;2023-02-02T10:53:38;19.40;45.40
32753;DHT22;19121;52.428;10.816;2023-02-02T10:56:05;19.40;45.30
32753;DHT22;19121;52.428;10.816;2023-02-02T10:58:37;19.40;45.30
32753;DHT22;19121;52.428;10.816;2023-02-02T11:01:06;19.40;45.30
32753;DHT22;19121;52.428;10.816;2023-02-02T11:03:35;19.40;45.30
32753;DHT22;19121;52.428;10.816;2023-02-02T11:06:01;19.50;45.30
32753;DHT22;19121;52.428;10.816;2023-02-02T11:08:49;19.50;45.30
32753;DHT22;19121;52.428;10.816;2023-02-02T11:11:22;19.50;45.20
32753;DHT22;19121;52.428;10.816;2023-02-02T11:13:50;19.50;45.20
32753;DHT22;19121;52.428;10.816;2023-02-02T11:16:17;19.50;45.20
32753;DHT22;19121;52.428;10.816;2023-02-02T11:18:43;19.50;45.20
32753;DHT22;19121;52.428;10.816;2023-02-02T11:21:28;19.50;45.20
32753;DHT22;19121;52.428;10.816;2023-02-02T11:24:04;19.50;45.20
32753;DHT22;19121;52.428;10.816;2023-02-02T11:26:40;19.50;45.20
32753;DHT22;19121;52.428;10.816;2023-02-02T11:29:12;19.50;45.20
32753;DHT22;19121;52.428;10.816;2023-02-02T11:31:38;19.50;45.20
32753;DHT22;19121;52.428;10.816;2023-02-02T11:34:08;19.50;45.40
32753;DHT22;19121;52.428;10.816;2023-02-02T11:36:33;19.50;45.50
32753;DHT22;19121;52.428;10.816;2023-02-02T11:39:15;19.60;45.30
32753;DHT22;19121;52.428;10.816;2023-02-02T11:41:40;19.60;45.30
32753;DHT22;19121;52.428;10.816;2023-02-02T11:44:09;19.60;45.30
32753;DHT22;19121;52.428;10.816;2023-02-02T11:46:36;19.60;45.20
32753;DHT22;19121;52.428;10.816;2023-02-02T11:49:03;19.60;45.20
32753;DHT22;19121;52.428;10.816;2023-02-02T11:51:29;19.70;45.20
32753;DHT22;19121;52.428;10.816;2023-02-02T11:54:14;19.60;45.20
32753;DHT22;19121;52.428;10.816;2023-02-02T11:56:41;19.70;45.30
32753;DHT22;19121;52.428;10.816;2023-02-02T11:59:09;19.70;45.30
32753;DHT22;19121;52.428;10.816;2023-02-02T12:01:50;19.60;45.20
32753;DHT22;19121;52.428;10.816;2023-02-02T12:04:34;19.60;45.20
32753;DHT22;19121;52.428;10.816;2023-02-02T12:06:59;19.70;45.20
32753;DHT22;19121;52.428;10.816;2023-02-02T12:09:25;19.70;45.20
32753;DHT22;19121;52.428;10.816;2023-02-02T12:11:53;19.70;45.20
32753;DHT22;19121;52.428;10.816;2023-02-02T12:14:38;19.70;45.10
32753;DHT22;19121;52.428;10.816;2023-02-02T12:17:26;19.70;45.10
32753;DHT22;19121;52.428;10.816;2023-02-02T12:22:40;19.70;45.20
32753;DHT22;19121;52.428;10.816;2023-02-02T12:28:02;19.70;45.20
32753;DHT22;19121;52.428;10.816;2023-02-02T12:36:19;19.70;45.20
32753;DHT22;19121;52.428;10.816;2023-02-02T12:41:05;19.80;45.30
32753;DHT22;19121;52.428;10.816;2023-02-02T12:43:44;19.80;46.30
32753;DHT22;19121;52.428;10.816;2023-02-02T12:56:28;20.00;45.90
32753;DHT22;19121;52.428;10.816;2023-02-02T13:04:23;20.00;45.60
32753;DHT22;19121;52.428;10.816;2023-02-02T13:09:39;20.00;45.40
32753;DHT22;19121;52.428;10.816;2023-02-02T13:12:08;20.00;45.30
32753;DHT22;19121;52.428;10.816;2023-02-02T13:14:35;20.00;45.20
32753;DHT22;19121;52.428;10.816;2023-02-02T13:17:10;20.10;45.20
32753;DHT22;19121;52.428;10.816;2023-02-02T13:19:39;20.10;45.20
32753;DHT22;19121;52.428;10.816;2023-02-02T13:22:06;20.10;45.10
32753;DHT22;19121;52.428;10.816;2023-02-02T13:24:35;20.10;45.10
32753;DHT22;19121;52.428;10.816;2023-02-02T13:27:02;20.10;45.10
32753;DHT22;19121;52.428;10.816;2023-02-02T13:29:30;20.10;45.10
32753;DHT22;19121;52.428;10.816;2023-02-02T13:34:23;20.10;45.00
32753;DHT22;19121;52.428;10.816;2023-02-02T13:37:34;20.10;45.00
32753;DHT22;19121;52.428;10.816;2023-02-02T13:39:41;20.10;45.10
32753;DHT22;19121;52.428;10.816;2023-02-02T13:42:12;20.10;45.00
32753;DHT22;19121;52.428;10.816;2023-02-02T13:44:43;20.10;45.00
32753;DHT22;19121;52.428;10.816;2023-02-02T13:47:14;20.10;45.00
32753;DHT22;19121;52.428;10.816;2023-02-02T13:49:41;20.10;45.00
32753;DHT22;19121;52.428;10.816;2023-02-02T13:52:16;20.10;45.00
32753;DHT22;19121;52.428;10.816;2023-02-02T13:59:59;20.10;45.00
32753;DHT22;19121;52.428;10.816;2023-02-02T14:02:29;20.10;45.00
32753;DHT22;19121;52.428;10.816;2023-02-02T14:04:59;20.10;45.00
32753;DHT22;19121;52.428;10.816;2023-02-02T14:07:26;20.10;45.00
32753;DHT22;19121;52.428;10.816;2023-02-02T14:09:52;20.20;45.00
32753;DHT22;19121;52.428;10.816;2023-02-02T14:12:25;20.20;45.10
32753;DHT22;19121;52.428;10.816;2023-02-02T14:14:51;20.20;45.00
32753;DHT22;19121;52.428;10.816;2023-02-02T14:18:02;20.20;45.00
32753;DHT22;19121;52.428;10.816;2023-02-02T14:20:03;20.20;45.10
32753;DHT22;19121;52.428;10.816;2023-02-02T14:22:41;20.10;45.10
32753;DHT22;19121;52.428;10.816;2023-02-02T14:28:10;20.20;45.10
32753;DHT22;19121;52.428;10.816;2023-02-02T14:30:36;20.20;45.10
32753;DHT22;19121;52.428;10.816;2023-02-02T14:38:14;20.20;45.00
32753;DHT22;19121;52.428;10.816;2023-02-02T14:43:31;20.20;45.00
32753;DHT22;19121;52.428;10.816;2023-02-02T14:48:45;20.10;45.00
32753;DHT22;19121;52.428;10.816;2023-02-02T14:51:18;20.10;45.00
32753;DHT22;19121;52.428;10.816;2023-02-02T14:53:49;20.10;44.90
32753;DHT22;19121;52.428;10.816;2023-02-02T14:56:16;20.20;44.90
32753;DHT22;19121;52.428;10.816;2023-02-02T14:58:43;20.20;44.90
32753;DHT22;19121;52.428;10.816;2023-02-02T15:14:19;20.20;44.90
32753;DHT22;19121;52.428;10.816;2023-02-02T15:16:46;20.10;44.80
32753;DHT22;19121;52.428;10.816;2023-02-02T15:19:23;20.10;44.80
32753;DHT22;19121;52.428;10.816;2023-02-02T15:21:51;20.20;44.80
32753;DHT22;19121;52.428;10.816;2023-02-02T15:24:21;20.20;44.80
32753;DHT22;19121;52.428;10.816;2023-02-02T15:26:48;20.10;44.80
32753;DHT22;19121;52.428;10.816;2023-02-02T15:29:16;20.10;44.80
32753;DHT22;19121;52.428;10.816;2023-02-02T15:31:44;20.20;44.90
32753;DHT22;19121;52.428;10.816;2023-02-02T15:34:24;20.20;44.80
32753;DHT22;19121;52.428;10.816;2023-02-02T15:36:51;20.20;44.80
32753;DHT22;19121;52.428;10.816;2023-02-02T15:39:25;20.20;44.80
32753;DHT22;19121;52.428;10.816;2023-02-02T15:41:53;20.20;44.70
32753;DHT22;19121;52.428;10.816;2023-02-02T15:44:39;20.20;44.70
32753;DHT22;19121;52.428;10.816;2023-02-02T15:47:09;20.20;44.70
32753;DHT22;19121;52.428;10.816;2023-02-02T15:49:36;20.20;44.60
32753;DHT22;19121;52.428;10.816;2023-02-02T15:52:09;20.20;44.70
32753;DHT22;19121;52.428;10.816;2023-02-02T15:54:35;20.20;44.70
32753;DHT22;19121;52.428;10.816;2023-02-02T15:57:19;20.20;44.60
32753;DHT22;19121;52.428;10.816;2023-02-02T15:59:45;20.20;44.60
32753;DHT22;19121;52.428;10.816;2023-02-02T16:02:17;20.20;44.60
32753;DHT22;19121;52.428;10.816;2023-02-02T16:04:43;20.20;44.70
32753;DHT22;19121;52.428;10.816;2023-02-02T16:07:11;20.20;44.70
32753;DHT22;19121;52.428;10.816;2023-02-02T16:09:38;20.20;44.70
32753;DHT22;19121;52.428;10.816;2023-02-02T16:12:05;20.20;44.70
32753;DHT22;19121;52.428;10.816;2023-02-02T16:14:37;20.20;44.70
32753;DHT22;19121;52.428;10.816;2023-02-02T16:17:16;20.20;45.20
32753;DHT22;19121;52.428;10.816;2023-02-02T16:19:43;20.20;44.60
32753;DHT22;19121;52.428;10.816;2023-02-02T16:22:10;20.20;44.60
32753;DHT22;19121;52.428;10.816;2023-02-02T16:24:39;20.20;44.50
32753;DHT22;19121;52.428;10.816;2023-02-02T16:27:06;20.20;44.50
32753;DHT22;19121;52.428;10.816;2023-02-02T16:29:32;20.20;44.60
32753;DHT22;19121;52.428;10.816;2023-02-02T16:31:58;20.10;44.50
32753;DHT22;19121;52.428;10.816;2023-02-02T16:37:12;20.20;44.60
32753;DHT22;19121;52.428;10.816;2023-02-02T16:39:37;20.10;44.50
32753;DHT22;19121;52.428;10.816;2023-02-02T16:42:07;20.10;44.50
32753;DHT22;19121;52.428;10.816;2023-02-02T16:44:37;20.10;44.50
32753;DHT22;19121;52.428;10.816;2023-02-02T16:47:06;20.10;44.40
32753;DHT22;19121;52.428;10.816;2023-02-02T16:49:32;20.10;44.40
32753;DHT22;19121;52.428;10.816;2023-02-02T16:52:08;20.10;44.40
32753;DHT22;19121;52.428;10.816;2023-02-02T16:54:34;20.10;44.30
32753;DHT22;19121;52.428;10.816;2023-02-02T16:57:00;20.10;44.40
32753;DHT22;19121;52.428;10.816;2023-02-02T16:59:29;20.10;44.40
32753;DHT22;19121;52.428;10.816;2023-02-02T17:01:58;20.10;44.30